Time;durP1;ratioP1;P1;durP2;ratioP2;P2;SDS_P1;SDS_P2;PMS_P1;PMS_P2;Temp;Humidity;BMP_temperature;BMP_pressure;BME280_temperature;BME280_humidity;BME280_pressure;Samples;Min_cycle;Max_cycle;Signal;HPM_P1;HPM_P2
2023/01/01 00:03:32;;;;;;;121.63;51.10;;;3.90;99.90;;;1.49;100.00;101089.47;10553049;28;20139;-80
2023/01/01 00:08:35;;;;;;;133.00;52.67;;;3.90;99.90;;;1.48;100.00;101094.81;10522305;28;20055;-80
2023/01/01 00:13:41;;;;;;;143.20;63.20;;;3.90;99.90;;;1.45;100.00;101097.59;10544560;28;20453;-80
2023/01/01 00:18:43;;;;;;;120.17;55.97;;;3.90;99.90;;;1.49;100.00;101101.72;10563404;28;20155;-80
2023/01/01 00:23:47;;;;;;;177.40;68.70;;;3.90;99.90;;;1.56;100.00;101097.81;10548332;28;20520;-80
2023/01/01 00:28:49;;;;;;;149.27;63.17;;;3.90;99.90;;;1.66;100.00;101085.03;10540493;28;20056;-81
2023/01/01 00:33:54;;;;;;;150.77;59.13;;;4.00;99.90;;;1.81;100.00;101094.63;10530501;28;20067;-80
2023/01/01 00:38:57;;;;;;;133.67;53.07;;;4.20;99.90;;;1.92;100.00;101092.22;10578002;27;20095;-81
2023/01/01 00:44:00;;;;;;;135.30;51.33;;;4.30;99.90;;;2.05;100.00;101081.84;10563305;28;20052;-81
2023/01/01 00:49:03;;;;;;;134.83;50.60;;;4.30;99.90;;;2.16;100.00;101097.78;10555447;28;20105;-81
2023/01/01 00:54:06;;;;;;;132.90;49.37;;;4.50;99.90;;;2.26;100.00;101088.41;10529515;28;20063;-80
2023/01/01 00:59:09;;;;;;;118.07;43.07;;;4.60;99.90;;;2.32;100.00;101095.06;10542274;28;20067;-80
2023/01/01 01:04:13;;;;;;;160.20;48.50;;;4.60;99.90;;;2.36;100.00;101097.41;10561579;28;20398;-81
2023/01/01 01:09:15;;;;;;;169.97;48.13;;;4.70;99.90;;;2.39;100.00;101099.84;10549419;28;20091;-80
2023/01/01 01:14:19;;;;;;;183.07;46.60;;;4.70;99.90;;;2.44;100.00;101098.72;10541262;28;20064;-81
2023/01/01 01:19:24;;;;;;;181.33;39.87;;;4.70;99.90;;;2.48;100.00;101089.75;10557476;28;20059;-80
2023/01/01 01:24:27;;;;;;;173.50;44.27;;;4.80;99.90;;;2.50;100.00;101087.84;10540637;28;20535;-81
2023/01/01 01:29:30;;;;;;;135.30;42.80;;;4.80;99.90;;;2.51;100.00;101097.41;10550453;28;20091;-80
2023/01/01 01:34:33;;;;;;;198.17;44.10;;;4.80;99.90;;;2.47;100.00;101088.06;10563617;28;20086;-80
2023/01/01 01:39:37;;;;;;;192.27;48.03;;;4.80;99.90;;;2.42;100.00;101093.59;10521689;28;20066;-80
2023/01/01 01:45:05;;;;;;;172.93;45.33;;;4.80;99.90;;;2.31;100.00;101094.22;10535162;28;20063;-80
2023/01/01 01:50:26;;;;;;;114.97;44.63;;;4.70;99.90;;;2.17;100.00;101091.59;10547400;28;20124;-80
2023/01/01 01:55:32;;;;;;;104.67;40.10;;;4.60;99.90;;;2.03;100.00;101088.94;10558771;28;20060;-81
2023/01/01 02:00:35;;;;;;;127.50;42.13;;;4.40;99.90;;;1.88;100.00;101077.63;10557808;28;20064;-81
2023/01/01 02:05:40;;;;;;;131.90;47.10;;;4.30;99.90;;;1.77;100.00;101088.72;10545626;28;20063;-80
2023/01/01 02:10:43;;;;;;;102.97;42.73;;;4.20;99.90;;;1.69;100.00;101082.25;10544606;28;20142;-81
2023/01/01 02:16:19;;;;;;;101.27;32.90;;;4.10;99.90;;;1.70;100.00;101100.50;10553983;28;20134;-80
2023/01/01 02:21:55;;;;;;;112.50;38.67;;;4.10;99.90;;;1.77;100.00;101104.44;10571799;28;20060;-81
2023/01/01 02:27:19;;;;;;;99.47;35.87;;;4.10;99.90;;;1.79;100.00;101102.56;10573383;28;20171;-81
2023/01/01 02:32:45;;;;;;;77.07;32.53;;;4.20;99.90;;;1.85;100.00;101109.22;10544350;28;20082;-81
2023/01/01 02:37:54;;;;;;;114.17;33.63;;;4.20;99.90;;;1.94;100.00;101129.69;10572622;28;20537;-81
2023/01/01 02:43:00;;;;;;;114.50;38.20;;;4.30;99.90;;;2.03;100.00;101110.75;10552645;28;20067;-80
2023/01/01 02:48:06;;;;;;;107.20;35.50;;;4.40;99.90;;;2.10;100.00;101104.25;10555911;28;20068;-80
2023/01/01 02:53:32;;;;;;;90.73;35.30;;;4.40;99.90;;;2.17;100.00;101104.72;10546945;28;20070;-80
2023/01/01 03:04:45;;;;;;;107.70;35.47;;;4.60;99.90;;;2.31;100.00;101111.75;10556424;28;20520;-81
2023/01/01 03:10:14;;;;;;;136.80;34.67;;;4.70;99.90;;;2.35;100.00;101111.47;10554973;28;20122;-81
2023/01/01 03:15:48;;;;;;;114.17;32.63;;;4.70;99.90;;;2.38;100.00;101120.94;10567709;28;20090;-80
2023/01/01 03:20:58;;;;;;;111.97;34.00;;;4.70;99.90;;;2.44;100.00;101106.59;10566577;27;20071;-80
2023/01/01 03:26:10;;;;;;;137.20;29.83;;;4.80;99.90;;;2.49;100.00;101094.06;10553206;28;20067;-81
2023/01/01 03:31:20;;;;;;;89.07;25.83;;;4.80;99.90;;;2.58;100.00;101088.22;10542276;28;20062;-80
2023/01/01 03:36:32;;;;;;;90.37;23.60;;;4.90;99.90;;;2.63;100.00;101079.13;10541601;28;20139;-81
2023/01/01 03:42:00;;;;;;;81.07;25.80;;;5.00;99.90;;;2.72;100.00;101090.84;10545920;28;20261;-81
2023/01/01 03:47:05;;;;;;;57.70;21.83;;;5.10;99.90;;;2.79;100.00;101086.91;10530435;27;20065;-81
2023/01/01 03:52:34;;;;;;;76.07;24.43;;;5.10;99.90;;;2.88;100.00;101086.34;10558643;28;20056;-81
2023/01/01 03:58:22;;;;;;;70.90;22.03;;;5.20;99.90;;;2.95;100.00;101092.03;10529976;28;20453;-81
2023/01/01 04:03:30;;;;;;;70.67;22.03;;;5.30;99.90;;;3.04;100.00;101087.97;10558202;28;20101;-81
2023/01/01 04:08:34;;;;;;;94.23;22.20;;;5.40;99.90;;;3.09;100.00;101078.00;10553996;28;20056;-81
2023/01/01 04:13:47;;;;;;;76.03;23.97;;;5.40;99.90;;;3.15;100.00;101072.38;10558967;28;20067;-81
2023/01/01 04:18:50;;;;;;;76.50;25.20;;;5.50;99.90;;;3.21;100.00;101085.09;10552159;28;20056;-81
2023/01/01 04:23:53;;;;;;;85.43;26.80;;;5.50;99.90;;;3.25;100.00;101085.75;10544776;27;20055;-81
2023/01/01 04:28:56;;;;;;;95.23;28.37;;;5.60;99.90;;;3.26;100.00;101090.06;10571595;28;20510;-80
2023/01/01 04:33:59;;;;;;;126.73;25.63;;;5.60;99.90;;;3.22;100.00;101089.41;10550120;27;20510;-81
2023/01/01 04:39:02;;;;;;;62.43;21.90;;;5.60;99.90;;;3.22;100.00;101094.66;10512997;28;20148;-81
2023/01/01 04:44:05;;;;;;;84.30;22.77;;;5.60;99.90;;;3.19;100.00;101100.97;10558319;28;20083;-81
2023/01/01 04:49:08;;;;;;;84.33;24.03;;;5.50;99.90;;;3.14;100.00;101100.41;10545938;28;20062;-80
2023/01/01 04:54:11;;;;;;;91.77;24.50;;;5.50;99.90;;;3.11;100.00;101102.38;10521089;28;20067;-81
2023/01/01 04:59:14;;;;;;;74.53;22.20;;;5.50;99.90;;;3.02;100.00;101101.19;10563182;28;20076;-81
2023/01/01 05:04:17;;;;;;;75.40;25.87;;;5.40;99.90;;;2.95;100.00;101098.13;10551520;27;20069;-81
2023/01/01 05:09:20;;;;;;;87.77;30.33;;;5.30;99.90;;;2.94;100.00;101101.69;10557917;28;20075;-81
2023/01/01 05:14:23;;;;;;;108.47;27.97;;;5.30;99.90;;;2.95;100.00;101107.78;10552729;28;20144;-81
2023/01/01 05:19:26;;;;;;;75.27;20.83;;;5.30;99.90;;;2.94;100.00;101104.31;10547868;28;20056;-81
2023/01/01 05:24:30;;;;;;;109.00;23.80;;;5.30;99.90;;;2.96;100.00;101096.34;10550098;28;20125;-81
2023/01/01 05:29:33;;;;;;;71.43;22.37;;;5.30;99.90;;;2.96;100.00;101093.72;10526358;28;20056;-81
2023/01/01 05:34:36;;;;;;;101.23;22.07;;;5.30;99.90;;;2.99;100.00;101100.53;10545940;28;20110;-81
2023/01/01 05:39:38;;;;;;;105.87;21.83;;;5.40;99.90;;;3.01;100.00;101109.19;10587286;28;20056;-81
2023/01/01 05:44:41;;;;;;;70.77;23.10;;;5.40;99.90;;;3.03;100.00;101113.38;10551331;28;20135;-81
2023/01/01 05:49:44;;;;;;;78.37;23.10;;;5.40;99.90;;;3.06;100.00;101115.84;10554722;28;20436;-81
2023/01/01 05:54:47;;;;;;;99.63;23.50;;;5.40;99.90;;;3.10;100.00;101121.72;10572989;28;20505;-81
2023/01/01 05:59:50;;;;;;;103.87;27.00;;;5.40;99.90;;;3.11;100.00;101121.59;10554623;28;20082;-81
2023/01/01 06:04:54;;;;;;;112.33;21.80;;;5.50;99.90;;;3.14;100.00;101144.22;10555827;28;20055;-81
2023/01/01 06:09:57;;;;;;;89.60;21.90;;;5.50;99.90;;;3.13;100.00;101153.06;10551423;28;20433;-81
2023/01/01 06:15:00;;;;;;;84.80;24.90;;;5.50;99.90;;;3.12;100.00;101175.84;10572810;28;20106;-81
2023/01/01 06:20:03;;;;;;;71.53;24.87;;;5.40;99.90;;;3.12;100.00;101173.22;10590451;27;20055;-81
2023/01/01 06:25:07;;;;;;;109.23;25.30;;;5.40;99.90;;;3.18;100.00;101182.50;10554472;28;20108;-81
2023/01/01 06:30:10;;;;;;;82.43;22.70;;;5.50;99.90;;;3.17;100.00;101178.16;10541386;28;20064;-81
2023/01/01 06:35:13;;;;;;;64.20;19.73;;;5.50;99.90;;;3.19;100.00;101171.06;10509071;28;20080;-81
2023/01/01 06:40:16;;;;;;;60.50;18.20;;;5.50;99.90;;;3.20;100.00;101170.09;10550216;28;20056;-81
2023/01/01 06:45:19;;;;;;;65.30;17.90;;;5.50;99.90;;;3.21;100.00;101166.53;10545047;28;20506;-81
2023/01/01 06:50:22;;;;;;;66.83;22.07;;;5.50;99.90;;;3.20;100.00;101164.84;10541266;28;20052;-81
2023/01/01 06:55:25;;;;;;;76.80;22.47;;;5.50;99.90;;;3.21;100.00;101167.38;10542500;28;20534;-81
2023/01/01 07:00:28;;;;;;;93.77;22.80;;;5.50;99.90;;;3.18;100.00;101175.47;10562091;28;20059;-81
2023/01/01 07:05:31;;;;;;;75.23;20.90;;;5.50;99.90;;;3.18;100.00;101182.50;10569886;28;20461;-81
2023/01/01 07:10:34;;;;;;;94.67;22.27;;;5.50;99.90;;;3.16;100.00;101173.84;10528180;28;20060;-81
2023/01/01 07:15:37;;;;;;;83.53;21.47;;;5.50;99.90;;;3.16;100.00;101176.47;10534085;28;20477;-81
2023/01/01 07:20:41;;;;;;;67.50;19.00;;;5.50;99.90;;;3.19;100.00;101181.56;10556845;28;20064;-81
2023/01/01 07:25:44;;;;;;;63.40;21.37;;;5.50;99.90;;;3.17;100.00;101186.03;10530727;28;20056;-81
2023/01/01 07:30:48;;;;;;;51.93;21.10;;;5.50;99.90;;;3.18;100.00;101195.63;10542386;28;20110;-81
2023/01/01 07:35:51;;;;;;;80.90;18.53;;;5.50;99.90;;;3.22;100.00;101186.59;10529598;27;20109;-81
2023/01/01 07:40:54;;;;;;;49.03;20.37;;;5.50;99.90;;;3.28;100.00;101188.00;10581671;28;20528;-82
2023/01/01 07:46:00;;;;;;;47.57;18.10;;;5.60;99.90;;;3.21;100.00;101198.91;10559263;28;20060;-81
2023/01/01 07:51:04;;;;;;;46.63;20.10;;;5.60;99.90;;;3.20;100.00;101212.13;10571827;27;20087;-81
2023/01/01 07:56:07;;;;;;;56.00;19.87;;;5.50;99.90;;;3.21;100.00;101219.91;10586178;28;20059;-81
2023/01/01 08:01:13;;;;;;;35.33;17.17;;;5.50;99.90;;;3.24;100.00;101234.66;10551947;28;20059;-81
2023/01/01 08:06:16;;;;;;;39.23;15.57;;;5.60;99.90;;;3.31;100.00;101228.06;10578819;28;20156;-82
2023/01/01 08:11:19;;;;;;;48.97;21.27;;;5.60;99.90;;;3.39;100.00;101238.09;10563596;28;20084;-81
2023/01/01 08:16:22;;;;;;;45.63;20.50;;;5.70;99.90;;;3.48;100.00;101235.75;10522773;28;20468;-81
2023/01/01 08:21:26;;;;;;;53.40;19.60;;;5.70;99.90;;;3.57;100.00;101247.44;10576291;27;20390;-81
2023/01/01 08:26:33;;;;;;;51.53;17.53;;;5.90;99.90;;;3.64;100.00;101247.88;10548052;28;20509;-81
2023/01/01 08:31:36;;;;;;;39.90;16.77;;;5.90;99.90;;;3.70;100.00;101258.84;10559244;27;20059;-81
2023/01/01 08:36:39;;;;;;;36.73;14.23;;;6.00;99.90;;;3.74;100.00;101262.97;10524758;28;20055;-81
2023/01/01 08:41:42;;;;;;;46.07;21.23;;;6.00;99.90;;;3.81;100.00;101265.22;10546004;27;20056;-81
2023/01/01 08:46:45;;;;;;;44.23;17.00;;;6.10;99.90;;;3.81;100.00;101268.69;10551557;28;20052;-81
2023/01/01 08:51:49;;;;;;;37.53;15.97;;;6.10;99.90;;;3.89;100.00;101257.66;10565127;28;20521;-82
2023/01/01 08:56:51;;;;;;;46.73;21.20;;;6.10;99.90;;;3.92;100.00;101258.31;10559149;28;20066;-81
2023/01/01 09:01:55;;;;;;;32.13;15.70;;;6.20;99.90;;;3.96;100.00;101259.81;10532953;28;20063;-81
2023/01/01 09:06:58;;;;;;;36.40;17.30;;;6.20;99.90;;;4.02;100.00;101269.09;10539686;27;20056;-81
2023/01/01 09:12:07;;;;;;;36.50;15.63;;;6.30;99.90;;;4.07;100.00;101269.63;10543914;27;20460;-81
2023/01/01 09:17:10;;;;;;;36.60;15.57;;;6.30;99.90;;;4.14;100.00;101267.44;10530645;28;20067;-81
2023/01/01 09:22:13;;;;;;;88.47;37.93;;;6.40;99.90;;;4.15;100.00;101263.88;10552042;28;20061;-81
2023/01/01 09:27:16;;;;;;;42.33;17.70;;;6.40;99.90;;;4.17;100.00;101254.09;10589726;27;20155;-82
2023/01/01 09:32:19;;;;;;;49.63;22.90;;;6.40;99.90;;;4.20;100.00;101261.81;10540766;28;20459;-82
2023/01/01 09:37:23;;;;;;;48.60;23.10;;;6.40;99.90;;;4.23;100.00;101257.16;10558643;28;20063;-82
2023/01/01 09:42:47;;;;;;;49.27;19.67;;;6.50;99.90;;;4.27;100.00;101252.56;10572795;28;20113;-82
2023/01/01 09:47:55;;;;;;;36.77;17.90;;;6.50;99.90;;;4.33;100.00;101252.16;10543923;28;20056;-82
2023/01/01 09:53:06;;;;;;;53.17;23.60;;;6.60;99.90;;;4.40;100.00;101269.22;10548692;27;20101;-82
2023/01/01 09:58:10;;;;;;;;;;;6.70;99.90;;;4.48;100.00;101258.16;10551083;28;20113;-83
2023/01/01 10:03:31;;;;;;;31.50;15.40;;;6.70;99.90;;;4.53;100.00;101258.69;10567176;28;19928;-83
2023/01/01 10:08:43;;;;;;;25.07;14.83;;;6.80;99.90;;;4.65;100.00;101271.03;10572512;28;20143;-83
2023/01/01 10:13:50;;;;;;;24.37;14.03;;;6.90;99.90;;;4.78;100.00;101271.03;10586652;28;20056;-81
2023/01/01 10:19:49;;;;;;;32.90;17.73;;;7.10;99.90;;;4.89;100.00;101265.91;10549407;28;20436;-84
2023/01/01 10:25:05;;;;;;;40.67;18.83;;;7.10;99.90;;;5.06;100.00;101259.47;10547677;28;20060;-81
2023/01/01 10:30:28;;;;;;;36.70;19.10;;;7.30;99.90;;;5.27;100.00;101243.94;10539850;27;20056;-81
2023/01/01 10:35:39;;;;;;;23.87;13.77;;;7.50;99.90;;;5.44;100.00;101245.38;10538948;28;20063;-81
2023/01/01 10:40:42;;;;;;;24.15;13.80;;;7.70;99.90;;;5.56;100.00;101242.72;10559996;28;20063;-81
2023/01/01 10:45:52;;;;;;;24.23;13.50;;;7.80;99.90;;;5.70;100.00;101240.84;10552568;28;20070;-82
2023/01/01 10:51:13;;;;;;;21.80;12.03;;;8.00;99.90;;;5.85;100.00;101223.94;10523749;28;20533;-81
2023/01/01 10:56:20;;;;;;;21.50;11.73;;;8.10;99.90;;;5.98;100.00;101226.53;10564418;28;20056;-82
2023/01/01 11:01:32;;;;;;;19.40;11.23;;;8.20;99.90;;;6.09;100.00;101198.41;10545719;28;20392;-82
2023/01/01 11:06:46;;;;;;;21.13;12.73;;;8.40;99.90;;;6.24;100.00;101177.09;10567457;27;20084;-82
2023/01/01 11:12:01;;;;;;;17.03;10.27;;;8.50;99.90;;;6.37;100.00;101167.31;10518921;28;20052;-82
2023/01/01 11:17:31;;;;;;;17.73;10.37;;;8.60;99.90;;;6.47;100.00;101168.25;10550177;28;20067;-82
2023/01/01 11:22:50;;;;;;;20.20;11.80;;;8.80;99.90;;;6.48;100.00;101175.25;10586226;28;20098;-82
2023/01/01 11:28:20;;;;;;;19.57;11.47;;;8.80;99.90;;;6.54;100.00;101179.22;10519994;28;20110;-82
2023/01/01 11:33:24;;;;;;;19.40;10.80;;;8.80;99.90;;;6.51;100.00;101167.06;10549046;28;20432;-82
2023/01/01 11:38:28;;;;;;;19.97;11.47;;;8.80;99.90;;;6.51;100.00;101161.78;10547863;28;20069;-81
2023/01/01 11:43:45;;;;;;;23.77;12.53;;;8.80;99.90;;;6.42;100.00;101175.72;10533124;28;20115;-81
2023/01/01 11:48:49;;;;;;;23.00;12.00;;;8.80;99.90;;;6.37;100.00;101162.84;10549258;28;20056;-81
2023/01/01 11:54:10;;;;;;;22.27;11.73;;;8.70;99.90;;;6.32;100.00;101153.59;10518061;28;20063;-81
2023/01/01 11:59:17;;;;;;;23.77;12.00;;;8.60;99.90;;;6.32;100.00;101153.59;10545090;28;20060;-81
2023/01/01 12:04:54;;;;;;;21.10;11.53;;;8.60;99.90;;;6.31;100.00;101147.50;10549834;28;20535;-81
2023/01/01 12:10:12;;;;;;;28.27;15.00;;;8.60;99.90;;;6.40;100.00;101140.66;10535125;28;20512;-82
2023/01/01 12:15:27;;;;;;;25.30;14.80;;;8.70;99.90;;;6.58;100.00;101143.66;10569347;28;20062;-81
2023/01/01 12:20:58;;;;;;;17.30;11.30;;;8.80;99.90;;;6.81;100.00;101133.94;10539865;28;20159;-81
2023/01/01 12:26:07;;;;;;;27.13;14.47;;;9.00;99.90;;;6.97;100.00;101132.63;10564719;28;20130;-81
2023/01/01 12:31:47;;;;;;;27.33;13.03;;;9.20;99.90;;;7.15;100.00;101126.84;10555109;28;20052;-82
2023/01/01 12:37:09;;;;;;;23.17;12.17;;;9.30;99.90;;;7.28;100.00;101129.34;10557760;28;20091;-82
2023/01/01 12:42:23;;;;;;;20.70;11.20;;;9.50;99.90;;;7.23;100.00;101134.97;10550341;28;20450;-82
2023/01/01 12:47:48;;;;;;;21.17;11.60;;;9.40;99.90;;;7.19;100.00;101131.72;10565848;27;20052;-82
2023/01/01 12:53:27;;;;;;;22.67;10.53;;;9.40;99.90;;;7.17;100.00;101136.31;10564414;28;20056;-80
2023/01/01 12:58:42;;;;;;;20.90;10.67;;;9.30;99.90;;;7.15;100.00;101130.31;10570295;28;20056;-80
2023/01/01 13:03:55;;;;;;;19.47;10.40;;;9.30;99.90;;;7.15;100.00;101142.69;10557513;28;20067;-80
2023/01/01 13:09:14;;;;;;;22.53;12.03;;;9.30;99.90;;;7.15;100.00;101143.53;10508314;28;20052;-80
2023/01/01 13:14:17;;;;;;;21.07;12.37;;;9.30;99.90;;;7.02;100.00;101140.19;10542590;28;21005;-80
2023/01/01 13:19:30;;;;;;;22.73;12.97;;;9.30;99.90;;;6.87;100.00;101133.47;10516700;28;20118;-82
2023/01/01 13:24:33;;;;;;;20.40;10.93;;;9.20;99.90;;;6.70;100.00;101138.28;10535365;28;20517;-82
2023/01/01 13:29:44;;;;;;;31.37;16.47;;;9.00;99.90;;;6.52;100.00;101144.16;10529964;28;20110;-82
2023/01/01 13:35:01;;;;;;;30.93;16.10;;;8.90;99.90;;;6.39;100.00;101138.97;10566281;28;20814;-82
2023/01/01 13:40:10;;;;;;;25.90;13.17;;;8.70;99.90;;;6.32;100.00;101153.59;10566952;27;20067;-82
2023/01/01 13:45:41;;;;;;;21.57;11.67;;;8.60;99.90;;;6.28;100.00;101174.09;10576415;27;20139;-82
2023/01/01 13:51:51;;;;;;;21.90;11.57;;;8.50;99.90;;;6.22;100.00;101179.00;10545341;28;20093;-82
2023/01/01 13:57:41;;;;;;;25.10;13.23;;;8.50;99.90;;;6.14;100.00;101176.97;10565303;28;20060;-82
2023/01/01 14:02:57;;;;;;;27.93;14.37;;;8.40;99.90;;;6.08;100.00;101183.53;10538618;27;20608;-81
2023/01/01 14:08:00;;;;;;;29.23;14.30;;;8.30;99.90;;;6.08;100.00;101183.53;10588846;27;20082;-81
2023/01/01 14:13:09;;;;;;;53.63;23.20;;;8.30;99.90;;;6.08;100.00;101177.41;10544855;28;20055;-81
2023/01/01 14:18:17;;;;;;;33.37;17.80;;;8.30;99.90;;;6.05;100.00;101180.28;10571429;28;20071;-81
2023/01/01 14:23:31;;;;;;;28.27;14.60;;;8.30;99.90;;;6.06;100.00;101174.91;10548070;28;20059;-81
2023/01/01 14:28:35;;;;;;;32.27;14.80;;;8.30;99.90;;;6.06;100.00;101185.47;10577273;28;20099;-80
2023/01/01 14:33:39;;;;;;;23.37;12.80;;;8.30;99.90;;;6.06;100.00;101181.97;10589392;27;20056;-81
2023/01/01 14:38:45;;;;;;;36.63;17.63;;;8.30;99.90;;;6.04;100.00;101190.00;10525035;28;20105;-81
2023/01/01 14:43:52;;;;;;;34.27;16.03;;;8.30;99.90;;;6.08;100.00;101185.34;10545863;28;20503;-82
2023/01/01 14:49:07;;;;;;;35.47;17.03;;;8.30;99.90;;;6.11;100.00;101195.66;10533613;28;20060;-81
2023/01/01 14:54:18;;;;;;;29.13;14.40;;;8.30;99.90;;;6.14;100.00;101177.78;10538440;27;21377;-81
2023/01/01 14:59:31;;;;;;;29.27;15.13;;;8.40;99.90;;;6.17;100.00;101174.06;10542905;28;20429;-81
2023/01/01 15:04:35;;;;;;;27.47;15.47;;;8.40;99.90;;;6.21;100.00;101179.97;10550810;28;20480;-80
2023/01/01 15:09:37;;;;;;;43.07;21.17;;;8.40;99.90;;;6.20;100.00;101187.06;10572094;28;20208;-80
2023/01/01 15:14:44;;;;;;;36.93;17.27;;;8.40;99.90;;;6.23;100.00;101180.69;10579754;27;20056;-80
2023/01/01 15:20:05;;;;;;;31.80;15.77;;;8.50;99.90;;;6.20;100.00;101197.59;10549676;28;20513;-81
2023/01/01 15:25:14;;;;;;;29.00;16.23;;;8.50;99.90;;;6.17;100.00;101203.09;10560696;28;20063;-80
2023/01/01 15:30:26;;;;;;;27.63;16.03;;;8.40;99.90;;;6.17;100.00;101197.81;10551633;28;20063;-80
2023/01/01 15:35:32;;;;;;;35.90;18.17;;;8.40;99.90;;;6.19;100.00;101210.94;10521447;28;20494;-81
2023/01/01 15:40:35;;;;;;;62.17;29.63;;;8.40;99.90;;;6.19;100.00;101206.50;10535045;28;20433;-81
2023/01/01 15:45:40;;;;;;;46.13;23.30;;;8.40;99.90;;;6.23;100.00;101213.19;10563401;28;20186;-81
2023/01/01 15:50:49;;;;;;;43.10;21.60;;;8.40;99.90;;;6.29;100.00;101207.47;10567597;28;20086;-81
2023/01/01 15:55:55;;;;;;;29.27;16.00;;;8.50;99.90;;;6.31;100.00;101228.47;10570587;28;20145;-81
2023/01/01 16:01:02;;;;;;;30.53;17.00;;;8.50;99.90;;;6.34;100.00;101226.44;10566015;28;20117;-81
2023/01/01 16:06:06;;;;;;;30.23;16.63;;;8.50;99.90;;;6.36;100.00;101227.19;10537980;28;20422;-81
2023/01/01 16:11:09;;;;;;;26.37;15.20;;;8.60;99.90;;;6.40;100.00;101219.84;10541063;28;20052;-81
2023/01/01 16:16:31;;;;;;;24.80;14.10;;;8.60;99.90;;;6.47;100.00;101230.78;10564713;28;20055;-80
2023/01/01 16:21:34;;;;;;;;;;;8.60;99.90;;;6.53;100.00;101225.03;10558712;28;20095;-81
2023/01/01 16:26:38;;;;;;;29.60;15.60;;;8.70;99.90;;;6.54;100.00;101235.50;10556744;28;20027;-80
2023/01/01 16:31:42;;;;;;;21.93;12.60;;;8.70;99.90;;;6.57;100.00;101237.91;10573643;28;20080;-81
2023/01/01 16:36:46;;;;;;;25.33;13.67;;;8.80;99.90;;;6.62;100.00;101232.28;10560969;28;20060;-80
2023/01/01 16:41:49;;;;;;;26.27;12.73;;;8.80;99.90;;;6.65;100.00;101246.06;10551781;28;20544;-80
2023/01/01 16:46:52;;;;;;;32.40;16.73;;;8.90;99.90;;;6.68;100.00;101243.22;10543655;28;20070;-80
2023/01/01 16:51:55;;;;;;;23.90;12.63;;;8.90;99.90;;;6.71;100.00;101244.78;10569408;28;20149;-80
2023/01/01 16:56:58;;;;;;;22.03;13.50;;;8.90;99.90;;;6.70;100.00;101246.56;10568690;28;20552;-80
2023/01/01 17:02:01;;;;;;;39.27;20.33;;;9.00;99.90;;;6.71;100.00;101242.13;10585984;27;20075;-80
2023/01/01 17:07:04;;;;;;;36.47;19.43;;;9.00;99.90;;;6.69;100.00;101244.88;10566537;28;20528;-81
2023/01/01 17:12:07;;;;;;;37.63;17.67;;;8.90;99.90;;;6.72;100.00;101264.97;10549919;28;20048;-80
2023/01/01 17:17:10;;;;;;;31.80;17.40;;;9.00;99.90;;;6.71;100.00;101256.16;10538660;28;20063;-81
2023/01/01 17:22:13;;;;;;;28.50;15.83;;;8.90;99.90;;;6.73;100.00;101252.59;10518933;28;20096;-80
2023/01/01 17:27:16;;;;;;;31.63;16.67;;;9.00;99.90;;;6.74;100.00;101259.56;10532543;28;20067;-81
2023/01/01 17:32:19;;;;;;;30.53;16.00;;;9.00;99.90;;;6.73;100.00;101250.78;10553590;28;20139;-80
2023/01/01 17:37:21;;;;;;;36.43;18.37;;;9.00;99.90;;;6.75;100.00;101256.78;10533582;28;20075;-81
2023/01/01 17:42:25;;;;;;;58.83;25.10;;;9.00;99.90;;;6.78;100.00;101245.13;10552383;28;20564;-81
2023/01/01 17:47:29;;;;;;;48.30;21.37;;;9.00;99.90;;;6.80;100.00;101253.81;10552121;27;20056;-81
2023/01/01 17:52:35;;;;;;;50.90;22.67;;;9.10;99.90;;;6.84;100.00;101253.47;10548782;28;20048;-80
2023/01/01 17:57:38;;;;;;;41.30;19.57;;;9.10;99.90;;;6.85;100.00;101265.72;10548677;28;20510;-80
2023/01/01 18:02:41;;;;;;;38.70;18.97;;;9.10;99.90;;;6.86;100.00;101258.63;10572809;28;20201;-80
2023/01/01 18:07:44;;;;;;;35.40;17.20;;;9.10;99.90;;;6.88;100.00;101268.09;10558145;28;20070;-81
2023/01/01 18:12:47;;;;;;;36.97;17.40;;;9.10;99.90;;;6.91;100.00;101274.97;10556969;28;20106;-81
2023/01/01 18:17:50;;;;;;;26.80;15.00;;;9.10;99.90;;;6.90;100.00;101271.47;10556878;28;20067;-81
2023/01/01 18:22:53;;;;;;;27.63;14.83;;;9.20;99.90;;;6.93;100.00;101265.94;10553961;28;20472;-80
2023/01/01 18:27:56;;;;;;;30.03;15.73;;;9.20;99.90;;;6.95;100.00;101279.03;10537673;28;20413;-81
2023/01/01 18:32:59;;;;;;;25.43;14.03;;;9.20;99.90;;;6.95;100.00;101279.03;10535258;28;20139;-81
2023/01/01 18:38:02;;;;;;;22.90;12.83;;;9.20;99.90;;;6.98;100.00;101270.88;10546800;28;20056;-81
2023/01/01 18:43:14;;;;;;;26.47;13.20;;;9.20;99.90;;;7.00;100.00;101268.94;10556502;27;20056;-82
2023/01/01 18:48:20;;;;;;;26.80;12.82;;;9.20;99.90;;;7.02;100.00;101272.34;10558945;28;20064;-81
2023/01/01 18:53:23;;;;;;;29.27;14.53;;;9.30;99.90;;;7.01;100.00;101278.56;10542963;28;20455;-81
2023/01/01 18:58:26;;;;;;;27.43;14.10;;;9.20;99.90;;;7.01;100.00;101269.78;10538398;28;20056;-81
2023/01/01 19:03:31;;;;;;;37.50;18.83;;;9.20;99.90;;;6.96;100.00;101263.09;10567778;28;20063;-82
2023/01/01 19:08:43;;;;;;;29.40;15.47;;;9.20;99.90;;;6.96;100.00;101275.47;10549149;28;20060;-81
2023/01/01 19:13:46;;;;;;;30.00;15.30;;;9.20;99.90;;;6.94;100.00;101261.50;10554470;28;20453;-82
2023/01/01 19:18:50;;;;;;;32.23;14.67;;;9.20;99.90;;;6.96;100.00;101264.88;10547409;28;20541;-82
2023/01/01 19:23:57;;;;;;;32.80;17.03;;;9.20;99.90;;;6.96;100.00;101255.16;10568648;28;20082;-81
2023/01/01 19:29:20;;;;;;;31.50;15.90;;;9.20;99.90;;;6.99;100.00;101251.41;10547852;28;20064;-81
2023/01/01 19:34:24;;;;;;;29.60;16.13;;;9.20;99.90;;;6.97;100.00;101251.53;10563089;28;20116;-81
2023/01/01 19:39:28;;;;;;;28.33;16.63;;;9.20;99.90;;;6.96;100.00;101241.09;10547094;28;20585;-81
2023/01/01 19:44:33;;;;;;;29.93;17.20;;;9.20;99.90;;;6.93;100.00;101238.69;10560367;28;20071;-81
2023/01/01 19:49:36;;;;;;;40.93;19.03;;;9.10;99.90;;;6.87;100.00;101231.22;10585766;28;20113;-82
2023/01/01 19:54:40;;;;;;;37.57;18.30;;;9.10;99.90;;;6.83;100.00;101240.34;10549840;28;20063;-81
2023/01/01 19:59:43;;;;;;;37.30;18.67;;;9.10;99.90;;;6.80;100.00;101243.25;10525124;28;20065;-81
2023/01/01 20:04:46;;;;;;;41.90;20.47;;;9.00;99.90;;;6.73;100.00;101242.03;10540533;28;20559;-81
2023/01/01 20:09:49;;;;;;;31.30;15.90;;;9.00;99.90;;;6.69;100.00;101247.53;10551510;28;20143;-81
2023/01/01 20:14:52;;;;;;;30.63;15.93;;;8.90;99.90;;;6.63;100.00;101242.72;10554794;28;20056;-81
2023/01/01 20:19:55;;;;;;;38.10;17.77;;;8.90;99.90;;;6.61;100.00;101247.28;10559458;28;20056;-81
2023/01/01 20:24:58;;;;;;;30.10;16.67;;;8.80;99.90;;;6.57;100.00;101237.91;10543874;28;20478;-81
2023/01/01 20:30:02;;;;;;;29.70;16.30;;;8.80;99.90;;;6.50;100.00;101244.63;10554105;28;20060;-82
2023/01/01 20:35:05;;;;;;;30.83;16.67;;;8.70;99.90;;;6.44;100.00;101253.00;10533377;28;20091;-81
2023/01/01 20:40:10;;;;;;;33.43;16.57;;;8.60;99.90;;;6.41;100.00;101245.28;10533832;28;20135;-81
2023/01/01 20:45:14;;;;;;;30.97;17.30;;;8.60;99.90;;;6.39;100.00;101240.13;10544957;28;20060;-81
2023/01/01 20:50:17;;;;;;;33.47;16.13;;;8.60;99.90;;;6.36;100.00;101240.38;10581779;28;20262;-81
2023/01/01 20:55:20;;;;;;;35.60;17.17;;;8.60;99.90;;;6.33;100.00;101232.69;10521920;28;20056;-81
2023/01/01 21:00:23;;;;;;;26.83;14.17;;;8.60;99.90;;;6.30;100.00;101234.72;10556734;28;20113;-81
2023/01/01 21:05:25;;;;;;;28.73;15.77;;;8.50;99.90;;;6.26;100.00;101233.25;10552107;28;20175;-80